Time;durP1;ratioP1;P1;durP2;ratioP2;P2;SDS_P1;SDS_P2;PMS_P1;PMS_P2;Temp;Humidity;BMP_temperature;BMP_pressure;BME280_temperature;BME280_humidity;BME280_pressure;Samples;Min_cycle;Max_cycle;Signal;HPM_P1;HPM_P2
2021/07/22 03:14:15;;;;;;;503.57;485.90;;;12.00;99.90;;;;;;6133726;23;20520;-82
2021/07/22 03:21:01;;;;;;;487.40;470.03;;;12.00;99.90;;;;;;6021647;23;20515;-82
2021/07/22 03:26:54;;;;;;;509.10;490.40;;;12.10;99.90;;;;;;6121816;23;20759;-81
2021/07/22 03:43:49;;;;;;;;;;;;;;;;;;;;;
2021/07/22 03:50:13;;;;;;;478.37;460.57;;;12.10;99.90;;;;;;5950027;24;20540;-87
2021/07/22 03:52:40;;;;;;;504.17;484.70;;;12.10;99.90;;;;;;5965997;23;20434;-81
2021/07/22 03:55:10;;;;;;;513.70;493.93;;;12.10;99.90;;;;;;6144876;23;20437;-81
2021/07/22 03:57:43;;;;;;;531.90;511.60;;;12.20;99.90;;;;;;6165828;23;20409;-82
2021/07/22 04:00:18;;;;;;;527.20;506.37;;;12.30;99.90;;;;;;6163965;23;20474;-82
2021/07/22 04:02:49;;;;;;;519.00;498.70;;;12.40;99.90;;;;;;6165697;23;20410;-83
2021/07/22 04:05:17;;;;;;;425.70;410.07;;;12.60;99.90;;;;;;6155871;23;20492;-81
2021/07/22 04:08:21;;;;;;;;;;;;;;;;;;;;;
2021/07/22 04:11:15;;;;;;;456.70;440.10;;;12.70;99.90;;;;;;5947416;23;20476;-82
2021/07/22 04:20:16;;;;;;;431.33;415.57;;;12.80;99.90;;;;;;5973278;23;20453;-83
2021/07/22 04:23:02;;;;;;;443.23;426.87;;;13.00;99.90;;;;;;6138173;23;20435;-82
2021/07/22 04:25:29;;;;;;;527.80;508.53;;;13.00;99.90;;;;;;6197129;23;20432;-82
2021/07/22 04:27:56;;;;;;;543.93;523.53;;;13.00;99.90;;;;;;6187031;23;20404;-81
2021/07/22 04:30:23;;;;;;;502.97;483.97;;;13.10;99.90;;;;;;6185750;23;20400;-80
2021/07/22 04:36:01;;;;;;;506.70;487.80;;;13.00;99.90;;;;;;6176593;23;20746;-88
2021/07/22 04:39:01;;;;;;;;;;;;;;;;;;;;;
2021/07/22 04:41:46;;;;;;;514.97;495.67;;;13.10;99.90;;;;;;6197221;23;20542;-82
2021/07/22 04:47:13;;;;;;;519.40;499.93;;;13.10;99.90;;;;;;6185697;23;20408;-82
2021/07/22 04:49:43;;;;;;;546.27;526.03;;;13.20;99.90;;;;;;6187195;23;20401;-82
2021/07/22 04:52:15;;;;;;;439.73;423.50;;;13.20;99.90;;;;;;6186658;23;20882;-82
2021/07/22 04:54:50;;;;;;;530.70;511.07;;;13.30;99.90;;;;;;6197150;23;20491;-82
2021/07/22 04:57:23;;;;;;;528.23;508.53;;;13.40;99.90;;;;;;6197262;23;20434;-82
2021/07/22 04:59:55;;;;;;;539.63;519.50;;;13.50;99.90;;;;;;6195209;23;20413;-82
2021/07/22 05:03:09;;;;;;;612.50;588.57;;;13.60;99.90;;;;;;6187253;23;20400;-83
2021/07/22 05:06:12;;;;;;;481.47;463.97;;;13.70;99.90;;;;;;6197107;23;20470;-83
2021/07/22 05:11:59;;;;;;;586.77;565.23;;;14.20;99.90;;;;;;6194923;23;20448;-83
2021/07/22 05:14:30;;;;;;;339.10;325.30;;;14.40;99.90;;;;;;6163045;23;20446;-82
2021/07/22 05:16:57;;;;;;;191.00;181.00;;;14.60;99.90;;;;;;6157029;23;20427;-80
2021/07/22 05:19:30;;;;;;;257.60;245.77;;;14.80;99.90;;;;;;6166985;23;20462;-84
2021/07/22 05:21:58;;;;;;;220.43;209.90;;;15.00;99.90;;;;;;6156726;23;20441;-80
2021/07/22 05:24:44;;;;;;;110.83;102.27;;;15.20;99.80;;;;;;6166726;23;20469;-81
2021/07/22 05:31:07;;;;;;;87.80;80.70;;;15.60;96.70;;;;;;5934994;24;20416;-80
2021/07/22 05:33:34;;;;;;;73.80;67.13;;;15.90;95.30;;;;;;6009921;23;20420;-82
2021/07/22 05:39:20;;;;;;;55.83;39.40;;;16.20;92.10;;;;;;5878775;24;20418;-79
2021/07/22 05:42:11;;;;;;;50.33;37.30;;;16.30;91.50;;;;;;6091871;23;20442;-81
2021/07/22 05:44:46;;;;;;;51.00;33.07;;;16.50;90.00;;;;;;6147540;23;20414;-81
2021/07/22 07:39:11;;;;;;;68.47;15.87;;;23.90;22.30;;;;;;6156787;23;20480;-80
2021/07/22 07:41:42;;;;;;;63.30;15.30;;;24.10;21.60;;;;;;6164627;23;20470;-79
2021/07/22 07:44:08;;;;;;;74.50;18.80;;;24.70;18.70;;;;;;6153759;23;20506;-80
2021/07/22 07:46:35;;;;;;;72.37;23.90;;;25.10;15.80;;;;;;6164689;23;20722;-79
2021/07/22 07:49:03;;;;;;;70.90;27.77;;;25.80;15.40;;;;;;6154800;23;20406;-80
2021/07/22 07:51:30;;;;;;;74.63;24.47;;;26.10;15.80;;;;;;6155045;23;20713;-83
2021/07/22 07:53:58;;;;;;;76.30;26.77;;;26.10;15.20;;;;;;6176378;23;20834;-84
2021/07/22 07:56:27;;;;;;;72.73;26.60;;;26.10;8.70;;;;;;6184326;23;20774;-80
2021/07/22 07:58:55;;;;;;;68.43;28.50;;;25.90;9.80;;;;;;6183327;23;20405;-80
2021/07/22 08:01:25;;;;;;;74.40;36.87;;;26.00;8.70;;;;;;6184658;23;20433;-80
2021/07/22 08:03:52;;;;;;;69.83;31.30;;;25.80;8.60;;;;;;6193995;23;20406;-81
2021/07/22 08:06:19;;;;;;;67.30;19.00;;;25.80;11.50;;;;;;6194252;23;21275;-82
2021/07/22 08:08:46;;;;;;;61.83;14.47;;;25.80;8.60;;;;;;6194952;23;20467;-80
2021/07/22 08:11:13;;;;;;;62.50;13.40;;;26.00;8.70;;;;;;6183980;23;20409;-80
2021/07/22 08:13:41;;;;;;;61.30;13.63;;;25.90;8.60;;;;;;6183237;23;20782;-82
2021/07/22 08:16:09;;;;;;;66.87;18.47;;;26.00;9.90;;;;;;6194448;23;20504;-80
2021/07/22 08:18:36;;;;;;;61.80;13.07;;;26.40;8.90;;;;;;6184335;23;20459;-81
2021/07/22 08:21:03;;;;;;;64.90;18.33;;;27.00;5.50;;;;;;6184686;23;20437;-80
2021/07/22 08:23:30;;;;;;;62.13;12.43;;;27.10;9.30;;;;;;6194667;23;20413;-80
2021/07/22 08:25:57;;;;;;;61.40;14.43;;;26.70;4.20;;;;;;6184489;23;20491;-81
2021/07/22 08:28:23;;;;;;;61.90;14.50;;;26.80;3.60;;;;;;6194146;23;20409;-80
2021/07/22 08:30:54;;;;;;;62.40;16.77;;;27.30;7.10;;;;;;6192670;23;20413;-83
2021/07/22 08:33:21;;;;;;;64.10;15.70;;;26.80;5.70;;;;;;6184172;23;20401;-82
2021/07/22 08:35:48;;;;;;;65.60;14.93;;;26.70;5.20;;;;;;6184669;23;20793;-83
2021/07/22 08:38:16;;;;;;;68.37;26.07;;;26.80;4.90;;;;;;6184430;23;20765;-83
2021/07/22 08:41:17;;;;;;;68.13;18.80;;;26.90;7.10;;;;;;6184340;23;20444;-81
2021/07/22 08:43:52;;;;;;;60.77;15.00;;;26.40;4.20;;;;;;6119188;23;20440;-81
2021/07/22 08:46:27;;;;;;;60.90;15.23;;;26.50;5.40;;;;;;6193914;23;20400;-81
2021/07/22 08:52:33;;;;;;;;;;;;;;;;;;;;;
2021/07/22 08:55:48;;;;;;;;;;;;;;;;;;;;;
2021/07/22 08:58:15;;;;;;;60.70;11.07;;;29.50;1.00;;;;;;6130399;23;20417;-81
2021/07/22 09:00:43;;;;;;;61.20;12.13;;;30.10;1.00;;;;;;6194007;23;20484;-79
2021/07/22 09:03:13;;;;;;;63.07;12.80;;;30.00;1.00;;;;;;6195257;23;20417;-80
2021/07/22 09:05:40;;;;;;;65.57;13.53;;;30.80;1.00;;;;;;6185250;23;20412;-80
2021/07/22 09:08:07;;;;;;;68.90;14.50;;;30.40;1.00;;;;;;6186397;23;20398;-80
2021/07/22 09:10:34;;;;;;;64.20;15.70;;;30.50;1.00;;;;;;6187067;23;20484;-79
2021/07/22 09:13:01;;;;;;;62.47;12.43;;;29.40;1.00;;;;;;6186711;23;20925;-79
2021/07/22 09:15:29;;;;;;;63.60;13.60;;;27.80;1.00;;;;;;6185713;23;20405;-79
2021/07/22 09:17:56;;;;;;;58.47;12.50;;;26.70;1.00;;;;;;6187175;23;20464;-79
2021/07/22 09:20:30;;;;;;;62.50;13.37;;;27.00;1.00;;;;;;6186735;23;20484;-79
2021/07/22 09:22:59;;;;;;;61.83;13.60;;;27.30;1.00;;;;;;6184858;23;20516;-79
2021/07/22 09:25:49;;;;;;;57.80;12.37;;;27.40;1.00;;;;;;6185061;23;20426;-77
2021/07/22 09:28:17;;;;;;;60.07;13.00;;;27.60;1.00;;;;;;6176675;23;20432;-79
2021/07/22 09:31:03;;;;;;;58.57;11.80;;;27.70;1.00;;;;;;6183711;23;20484;-79
2021/07/22 09:33:37;;;;;;;58.80;12.27;;;27.70;1.00;;;;;;6185011;23;20404;-78
2021/07/22 09:36:07;;;;;;;57.37;10.90;;;27.60;1.00;;;;;;6186399;23;20393;-79
2021/07/22 10:23:54;;;;;;;59.87;8.63;;;31.50;1.00;;;;;;6173405;23;20456;-87
2021/07/22 10:26:54;;;;;;;59.03;9.30;;;30.90;1.00;;;;;;6164476;23;20733;-81
2021/07/22 10:29:47;;;;;;;61.73;11.90;;;31.70;1.00;;;;;;6185243;23;20397;-88
2021/07/22 10:32:18;;;;;;;57.60;9.40;;;31.20;1.00;;;;;;6182776;23;20440;-84
2021/07/22 10:34:55;;;;;;;60.97;9.93;;;31.40;1.00;;;;;;6185920;23;20413;-89
2021/07/22 10:37:24;;;;;;;61.80;10.67;;;31.10;1.00;;;;;;6196202;23;20428;-89
2021/07/22 12:14:39;;;;;;;70.60;21.40;;;26.50;1.00;;;;;;6151775;23;20912;-76
2021/07/22 12:17:08;;;;;;;60.67;14.23;;;27.00;1.00;;;;;;6155250;23;20918;-77
2021/07/22 12:19:37;;;;;;;58.80;14.67;;;28.40;1.00;;;;;;6162085;23;20715;-77
2021/07/22 12:22:20;;;;;;;60.50;17.00;;;29.30;1.00;;;;;;6154418;23;20723;-77
2021/07/22 12:24:48;;;;;;;55.40;11.50;;;29.40;1.00;;;;;;6152998;23;20395;-78
2021/07/22 12:27:30;;;;;;;58.37;13.27;;;30.00;1.00;;;;;;6155740;23;20402;-78
2021/07/22 12:29:58;;;;;;;59.47;13.33;;;31.90;1.00;;;;;;6154186;23;20426;-80
2021/07/22 12:32:28;;;;;;;64.83;13.60;;;31.60;1.00;;;;;;6155633;23;20434;-79
2021/07/22 12:34:55;;;;;;;63.70;13.47;;;31.40;1.00;;;;;;6165301;23;20754;-79
2021/07/22 12:37:22;;;;;;;62.30;13.40;;;31.50;1.00;;;;;;6155599;23;20509;-79
2021/07/22 12:39:48;;;;;;;65.13;15.00;;;30.40;1.00;;;;;;6155765;23;20409;-79
2021/07/22 12:42:16;;;;;;;67.80;16.57;;;30.10;1.00;;;;;;6155958;23;20752;-78
2021/07/22 12:44:44;;;;;;;63.00;13.70;;;29.80;1.00;;;;;;6156254;23;20404;-80
2021/07/22 12:47:32;;;;;;;61.77;14.87;;;29.50;1.00;;;;;;6157321;23;20492;-80
2021/07/22 12:50:00;;;;;;;62.30;14.60;;;30.50;1.00;;;;;;6167484;23;20412;-78
2021/07/22 12:52:27;;;;;;;65.37;15.80;;;29.70;1.00;;;;;;6181111;23;20495;-79
2021/07/22 12:55:01;;;;;;;70.97;16.40;;;30.10;1.00;;;;;;6197305;23;20479;-79
2021/07/22 12:57:46;;;;;;;65.10;17.27;;;31.10;1.00;;;;;;6187368;23;20424;-78
2021/07/22 13:00:16;;;;;;;63.17;14.20;;;31.70;1.00;;;;;;6185455;23;20870;-78
2021/07/22 13:02:54;;;;;;;62.13;17.40;;;31.30;1.00;;;;;;6187191;23;20487;-78
2021/07/22 13:05:21;;;;;;;64.87;13.97;;;31.90;1.00;;;;;;6187114;23;20403;-79
2021/07/22 13:07:48;;;;;;;64.97;14.67;;;30.90;1.00;;;;;;6186957;23;20906;-79
2021/07/22 13:10:16;;;;;;;65.10;14.97;;;30.50;1.00;;;;;;6187268;23;20371;-79
2021/07/22 13:12:43;;;;;;;68.30;17.03;;;30.50;1.00;;;;;;6187078;23;20439;-80
2021/07/22 13:22:36;;;;;;;60.70;14.37;;;31.20;1.00;;;;;;5806645;24;20436;-82
2021/07/22 13:34:08;;;;;;;104.27;19.60;;;27.50;1.00;;;;;;5943648;23;20931;-83
2021/07/22 13:43:07;;;;;;;55.90;11.90;;;28.30;1.00;;;;;;5835908;23;20385;-84
2021/07/22 13:48:26;;;;;;;66.10;15.90;;;30.00;1.00;;;;;;6158352;23;20412;-85
2021/07/22 13:50:54;;;;;;;59.10;11.90;;;29.60;1.00;;;;;;6186695;23;20484;-82
2021/07/22 13:53:22;;;;;;;59.50;13.67;;;29.50;1.00;;;;;;6196525;23;20436;-82
2021/07/22 13:55:49;;;;;;;57.83;11.87;;;29.60;1.00;;;;;;6186234;23;20371;-81
2021/07/22 13:58:16;;;;;;;57.40;10.67;;;28.60;1.00;;;;;;6186780;23;20477;-81
2021/07/22 14:00:43;;;;;;;55.53;10.50;;;28.90;1.00;;;;;;6185215;23;20432;-80
2021/07/22 14:03:10;;;;;;;57.40;10.70;;;28.40;1.00;;;;;;6186190;23;20491;-80
2021/07/22 14:05:36;;;;;;;54.30;9.63;;;28.20;1.00;;;;;;6186612;23;20429;-80
2021/07/22 14:08:04;;;;;;;52.47;9.17;;;28.90;1.00;;;;;;6186198;23;20418;-80
2021/07/22 14:10:34;;;;;;;54.27;9.23;;;28.80;1.00;;;;;;6186555;23;20827;-80
2021/07/22 14:13:01;;;;;;;53.87;8.43;;;30.20;1.00;;;;;;6186562;23;20758;-79
2021/07/22 14:15:27;;;;;;;53.93;9.00;;;30.40;1.00;;;;;;6184566;23;20516;-81
2021/07/22 14:17:54;;;;;;;56.57;9.13;;;31.00;1.00;;;;;;6186587;23;20408;-80
2021/07/22 14:20:21;;;;;;;58.40;9.87;;;30.80;1.00;;;;;;6196296;23;20408;-81
2021/07/22 14:22:48;;;;;;;55.97;8.60;;;29.20;1.00;;;;;;6186473;23;20403;-81
2021/07/22 14:25:15;;;;;;;58.57;13.00;;;29.10;1.00;;;;;;6196412;23;20464;-81
2021/07/22 14:27:43;;;;;;;57.03;8.90;;;29.60;1.00;;;;;;6186427;23;20429;-82
2021/07/22 14:30:11;;;;;;;54.20;8.90;;;30.60;1.00;;;;;;6184982;23;20401;-81
2021/07/22 14:32:39;;;;;;;54.90;9.90;;;30.90;1.00;;;;;;6186306;23;20407;-82
2021/07/22 14:35:07;;;;;;;53.90;11.83;;;29.90;1.00;;;;;;6186453;23;21057;-81
2021/07/22 14:37:34;;;;;;;50.90;8.37;;;29.40;1.00;;;;;;6185900;23;20859;-81
2021/07/22 14:40:00;;;;;;;59.07;13.40;;;29.30;1.00;;;;;;6195768;23;20399;-81
2021/07/22 14:42:27;;;;;;;58.30;8.77;;;28.70;1.00;;;;;;6186240;23;20443;-83
2021/07/22 14:44:58;;;;;;;52.50;8.57;;;29.30;1.00;;;;;;6184784;23;20429;-82
2021/07/22 14:47:35;;;;;;;55.20;9.53;;;29.30;1.00;;;;;;6186312;23;20710;-83
2021/07/22 14:50:07;;;;;;;54.30;9.30;;;29.40;1.00;;;;;;6186186;23;20768;-86
2021/07/22 15:02:16;;;;;;;;;;;;;;;;;;;;;
2021/07/22 15:05:26;;;;;;;54.33;7.80;;;30.20;1.00;;;;;;6062821;23;20394;-83
2021/07/22 15:11:07;;;;;;;58.30;11.57;;;28.20;1.00;;;;;;5978616;24;20785;-80
2021/07/22 15:28:46;;;;;;;54.43;8.87;;;30.10;1.00;;;;;;5697170;24;20390;-79
2021/07/22 15:31:13;;;;;;;54.20;7.80;;;28.90;1.00;;;;;;5882416;23;20499;-78
2021/07/22 15:33:40;;;;;;;53.03;7.80;;;29.00;1.00;;;;;;6076018;23;20450;-81
2021/07/22 15:36:08;;;;;;;51.80;7.83;;;29.50;1.00;;;;;;6094474;23;20414;-79
2021/07/22 15:38:35;;;;;;;54.20;7.50;;;30.00;1.00;;;;;;6094490;23;20378;-78
2021/07/22 15:41:04;;;;;;;54.77;7.43;;;31.00;1.00;;;;;;6094345;23;20439;-79
2021/07/22 15:43:31;;;;;;;56.40;8.00;;;30.40;1.00;;;;;;6094676;23;20422;-83
2021/07/22 15:46:00;;;;;;;54.30;10.10;;;30.80;1.00;;;;;;6093229;23;20410;-79
2021/07/22 15:48:27;;;;;;;54.80;8.03;;;30.10;1.00;;;;;;6095220;23;20496;-78
2021/07/22 15:50:54;;;;;;;54.87;8.13;;;30.20;1.00;;;;;;6122916;23;20492;-79
2021/07/22 15:53:20;;;;;;;54.60;9.07;;;30.10;1.00;;;;;;6123584;23;20413;-80
2021/07/22 15:55:47;;;;;;;53.60;9.23;;;30.20;1.00;;;;;;6161239;23;20471;-79
2021/07/22 15:58:14;;;;;;;57.80;8.53;;;29.60;1.00;;;;;;6185136;23;20437;-79
2021/07/22 16:00:41;;;;;;;55.03;7.40;;;29.50;1.00;;;;;;6193784;23;20408;-82
2021/07/22 16:03:10;;;;;;;53.80;9.70;;;29.40;1.00;;;;;;6182970;23;20398;-89
2021/07/22 16:05:39;;;;;;;53.53;8.67;;;29.20;1.00;;;;;;6183748;23;20460;-86
2021/07/22 16:08:07;;;;;;;50.07;7.20;;;28.80;1.00;;;;;;6184359;23;20476;-82
2021/07/22 16:10:34;;;;;;;54.90;9.57;;;28.70;1.00;;;;;;6183805;23;20378;-78
2021/07/22 16:13:01;;;;;;;53.30;7.53;;;28.20;1.00;;;;;;6183845;23;20552;-79
2021/07/22 16:15:28;;;;;;;51.40;8.20;;;27.70;1.00;;;;;;6182550;23;20372;-77
2021/07/22 16:17:55;;;;;;;52.83;12.73;;;27.50;1.00;;;;;;6185763;23;20672;-78
2021/07/22 16:20:24;;;;;;;47.50;6.83;;;27.30;1.00;;;;;;6186202;23;20405;-77
2021/07/22 16:22:51;;;;;;;47.80;10.70;;;27.60;1.00;;;;;;6195861;23;20495;-78
2021/07/22 16:25:18;;;;;;;50.73;9.73;;;27.70;1.00;;;;;;6195670;23;20391;-81
2021/07/22 16:28:06;;;;;;;41.60;6.80;;;27.80;1.00;;;;;;6196011;23;20934;-81
2021/07/22 16:31:01;;;;;;;50.27;6.60;;;27.90;1.00;;;;;;6165899;23;20494;-81
2021/07/22 16:36:26;;;;;;;49.23;8.03;;;28.20;1.00;;;;;;6192677;23;20455;-80
2021/07/22 16:39:13;;;;;;;;;;;;;;;;;;;;;
2021/07/22 16:41:40;;;;;;;52.83;7.70;;;28.00;1.00;;;;;;6183773;23;20408;-81
2021/07/22 16:44:07;;;;;;;52.50;8.57;;;27.70;1.00;;;;;;6184363;23;20488;-80
2021/07/22 16:46:50;;;;;;;47.13;6.93;;;27.70;1.00;;;;;;6195376;23;20467;-87
2021/07/22 17:02:31;;;;;;;46.23;7.87;;;29.30;1.00;;;;;;5869968;24;20888;-83
2021/07/22 17:06:16;;;;;;;;;;;;;;;;;;;;;
2021/07/22 17:09:01;;;;;;;51.47;6.73;;;28.70;1.00;;;;;;5903543;24;20492;-82
2021/07/22 17:11:38;;;;;;;48.77;8.37;;;29.00;1.00;;;;;;6095800;23;20501;-82
2021/07/22 17:14:32;;;;;;;50.67;11.30;;;28.60;1.00;;;;;;6093987;23;20446;-81
2021/07/22 17:18:05;;;;;;;;;;;;;;;;;;;;;
2021/07/22 17:39:33;;;;;;;46.03;7.10;;;27.50;1.00;;;;;;5838008;24;20478;-83
2021/07/22 17:51:31;;;;;;;46.47;7.47;;;27.30;1.00;;;;;;5868925;24;20470;-86
2021/07/22 17:54:18;;;;;;;;;;;;;;;;;;;;;
2021/07/22 17:56:48;;;;;;;49.57;7.73;;;26.70;1.00;;;;;;6076567;23;20849;-90
2021/07/22 17:59:29;;;;;;;45.47;7.20;;;25.90;1.00;;;;;;6111071;23;20412;-86
2021/07/22 18:02:05;;;;;;;43.27;7.10;;;25.10;1.00;;;;;;6187566;23;20425;-86
2021/07/22 18:04:57;;;;;;;49.43;8.20;;;24.70;1.00;;;;;;6196980;23;20491;-90
2021/07/22 18:07:40;;;;;;;49.00;7.23;;;24.20;1.00;;;;;;6198283;23;20423;-90
2021/07/22 18:13:44;;;;;;;49.37;9.30;;;23.90;3.80;;;;;;6184904;23;20775;-86
2021/07/22 18:16:19;;;;;;;45.43;7.80;;;23.60;4.10;;;;;;6197473;23;20808;-89
2021/07/22 18:19:35;;;;;;;;;;;;;;;;;;;;;
2021/07/22 18:25:30;;;;;;;43.60;7.27;;;23.10;8.50;;;;;;6017530;23;20794;-88
2021/07/22 18:28:29;;;;;;;;;;;;;;;;;;;;;
2021/07/22 18:31:14;;;;;;;43.97;9.43;;;22.60;10.60;;;;;;6018685;23;20425;-87
2021/07/22 18:34:01;;;;;;;;;;;;;;;;;;;;;
2021/07/22 18:37:19;;;;;;;;;;;;;;;;;;;;;
2021/07/22 18:42:51;;;;;;;;;;;;;;;;;;;;;
2021/07/22 18:45:20;;;;;;;49.10;10.60;;;21.60;14.50;;;;;;6117362;23;20452;-84
2021/07/22 18:51:35;;;;;;;49.00;8.80;;;21.40;16.70;;;;;;6005502;23;21007;-85
2021/07/22 18:54:37;;;;;;;44.80;8.87;;;21.20;18.40;;;;;;5958365;23;20457;-87
2021/07/22 19:00:08;;;;;;;46.07;7.70;;;21.00;19.10;;;;;;6003013;23;20418;-90
2021/07/22 19:53:07;;;;;;;35.67;8.63;;;18.10;39.50;;;;;;5907282;24;20903;-86
2021/07/22 20:22:22;;;;;;;;;;;;;;;;;;;;;
